sensor_id;sensor_type;location;lat;lon;timestamp;pressure;altitude;pressure_sealevel;temperature;humidity
62779;BME280;48821;48.796;2.396;2022-10-23T10:08:59;100433.38;;;20.12;65.45
62779;BME280;48821;48.796;2.396;2022-10-23T10:10:13;100440.03;;;20.18;65.57
62779;BME280;48821;48.796;2.396;2022-10-23T10:11:43;100450.47;;;20.21;65.23
62779;BME280;48821;48.796;2.396;2022-10-23T10:12:57;100437.97;;;20.21;65.30
62779;BME280;48821;48.796;2.396;2022-10-23T10:16:14;100438.34;;;20.28;65.26
62779;BME280;48821;48.796;2.396;2022-10-23T10:23:27;100446.56;;;20.48;64.64
62779;BME280;48821;48.796;2.396;2022-10-23T10:29:36;100435.50;;;20.64;64.48
62779;BME280;48821;48.796;2.396;2022-10-23T10:31:09;100434.41;;;20.67;64.56
62779;BME280;48821;48.796;2.396;2022-10-23T10:33:55;100428.44;;;20.75;64.29
62779;BME280;48821;48.796;2.396;2022-10-23T10:38:46;100430.44;;;20.94;63.53
62779;BME280;48821;48.796;2.396;2022-10-23T10:40:24;100431.03;;;20.98;63.62
62779;BME280;48821;48.796;2.396;2022-10-23T10:41:53;100433.50;;;21.01;62.95
62779;BME280;48821;48.796;2.396;2022-10-23T10:44:54;100438.47;;;21.06;62.81
62779;BME280;48821;48.796;2.396;2022-10-23T10:46:21;100424.38;;;21.04;63.37
62779;BME280;48821;48.796;2.396;2022-10-23T10:49:09;100424.63;;;21.00;63.17
62779;BME280;48821;48.796;2.396;2022-10-23T10:56:18;100414.53;;;20.92;63.63
62779;BME280;48821;48.796;2.396;2022-10-23T10:57:46;100418.19;;;20.91;62.65
62779;BME280;48821;48.796;2.396;2022-10-23T10:59:02;100418.31;;;20.90;63.20
62779;BME280;48821;48.796;2.396;2022-10-23T11:00:18;100420.28;;;20.88;62.43
62779;BME280;48821;48.796;2.396;2022-10-23T11:01:35;100416.28;;;20.82;62.43
62779;BME280;48821;48.796;2.396;2022-10-23T11:02:48;100414.22;;;20.86;63.32
62779;BME280;48821;48.796;2.396;2022-10-23T11:05:34;100410.44;;;20.88;62.82
62779;BME280;48821;48.796;2.396;2022-10-23T11:06:50;100399.03;;;20.86;63.17
62779;BME280;48821;48.796;2.396;2022-10-23T11:08:08;100401.44;;;20.89;63.49
62779;BME280;48821;48.796;2.396;2022-10-23T11:09:24;100405.09;;;20.88;63.08
62779;BME280;48821;48.796;2.396;2022-10-23T11:10:38;100404.09;;;20.89;62.87
62779;BME280;48821;48.796;2.396;2022-10-23T11:11:50;100398.78;;;20.89;62.91
62779;BME280;48821;48.796;2.396;2022-10-23T11:13:01;100399.47;;;20.91;62.86
62779;BME280;48821;48.796;2.396;2022-10-23T11:14:26;100392.31;;;20.92;62.76
62779;BME280;48821;48.796;2.396;2022-10-23T11:15:41;100398.53;;;20.92;62.96
62779;BME280;48821;48.796;2.396;2022-10-23T11:18:19;100399.00;;;20.98;62.80
62779;BME280;48821;48.796;2.396;2022-10-23T11:19:49;100393.66;;;20.98;62.18
62779;BME280;48821;48.796;2.396;2022-10-23T11:22:46;100375.91;;;20.97;62.91
62779;BME280;48821;48.796;2.396;2022-10-23T11:25:58;100361.59;;;20.98;62.80
62779;BME280;48821;48.796;2.396;2022-10-23T11:31:37;100363.91;;;21.02;62.56
62779;BME280;48821;48.796;2.396;2022-10-23T11:33:15;100361.00;;;21.06;62.54
62779;BME280;48821;48.796;2.396;2022-10-23T11:36:49;100373.88;;;21.00;61.91
62779;BME280;48821;48.796;2.396;2022-10-23T11:39:38;100370.84;;;20.94;62.45
62779;BME280;48821;48.796;2.396;2022-10-23T11:40:53;100362.84;;;20.94;62.74
62779;BME280;48821;48.796;2.396;2022-10-23T11:43:30;100373.25;;;20.97;62.11
62779;BME280;48821;48.796;2.396;2022-10-23T11:44:49;100369.75;;;20.96;62.25
62779;BME280;48821;48.796;2.396;2022-10-23T11:47:36;100365.50;;;20.94;62.39
62779;BME280;48821;48.796;2.396;2022-10-23T11:48:50;100362.94;;;20.92;62.46
62779;BME280;48821;48.796;2.396;2022-10-23T11:51:43;100353.50;;;20.88;62.16
62779;BME280;48821;48.796;2.396;2022-10-23T11:53:05;100342.69;;;20.89;62.62
62779;BME280;48821;48.796;2.396;2022-10-23T11:54:22;100344.53;;;20.89;62.05
62779;BME280;48821;48.796;2.396;2022-10-23T11:55:33;100335.66;;;20.88;61.97
62779;BME280;48821;48.796;2.396;2022-10-23T11:58:24;100346.66;;;20.95;61.89
62779;BME280;48821;48.796;2.396;2022-10-23T12:01:04;100339.38;;;20.97;62.26
62779;BME280;48821;48.796;2.396;2022-10-23T12:02:37;100336.47;;;21.00;62.31
62779;BME280;48821;48.796;2.396;2022-10-23T12:04:01;100332.06;;;20.99;61.69
62779;BME280;48821;48.796;2.396;2022-10-23T12:05:35;100330.25;;;21.00;62.76
62779;BME280;48821;48.796;2.396;2022-10-23T12:06:57;100327.72;;;20.98;61.57
62779;BME280;48821;48.796;2.396;2022-10-23T12:08:22;100327.56;;;21.00;62.08
62779;BME280;48821;48.796;2.396;2022-10-23T12:09:44;100313.50;;;20.98;61.76
62779;BME280;48821;48.796;2.396;2022-10-23T12:10:55;100316.78;;;21.01;62.21
62779;BME280;48821;48.796;2.396;2022-10-23T12:14:48;100298.69;;;21.05;62.08
62779;BME280;48821;48.796;2.396;2022-10-23T12:15:59;100303.31;;;21.03;61.54
62779;BME280;48821;48.796;2.396;2022-10-23T12:18:31;100307.94;;;21.01;61.53
62779;BME280;48821;48.796;2.396;2022-10-23T12:19:47;100305.00;;;21.04;61.78
62779;BME280;48821;48.796;2.396;2022-10-23T12:21:01;100299.41;;;21.07;61.40
62779;BME280;48821;48.796;2.396;2022-10-23T12:22:14;100290.28;;;21.10;61.92
62779;BME280;48821;48.796;2.396;2022-10-23T12:23:38;100290.28;;;21.10;61.64
62779;BME280;48821;48.796;2.396;2022-10-23T12:25:02;100279.59;;;21.10;61.28
62779;BME280;48821;48.796;2.396;2022-10-23T12:26:22;100286.25;;;21.16;61.70
62779;BME280;48821;48.796;2.396;2022-10-23T12:27:44;100286.56;;;21.22;61.27
62779;BME280;48821;48.796;2.396;2022-10-23T12:29:31;100289.78;;;21.26;61.78
62779;BME280;48821;48.796;2.396;2022-10-23T12:30:45;100299.53;;;21.27;61.06
62779;BME280;48821;48.796;2.396;2022-10-23T12:33:31;100304.47;;;21.32;61.56
62779;BME280;48821;48.796;2.396;2022-10-23T12:34:47;100294.38;;;21.35;61.04
62779;BME280;48821;48.796;2.396;2022-10-23T12:37:52;100286.81;;;21.41;61.70
62779;BME280;48821;48.796;2.396;2022-10-23T12:39:28;100285.81;;;21.42;61.77
62779;BME280;48821;48.796;2.396;2022-10-23T12:40:43;100291.84;;;21.44;60.54
62779;BME280;48821;48.796;2.396;2022-10-23T12:41:54;100284.69;;;21.44;61.20
62779;BME280;48821;48.796;2.396;2022-10-23T12:43:26;100281.31;;;21.42;60.98
62779;BME280;48821;48.796;2.396;2022-10-23T12:44:39;100275.97;;;21.42;60.91
62779;BME280;48821;48.796;2.396;2022-10-23T12:45:50;100273.84;;;21.46;61.02
62779;BME280;48821;48.796;2.396;2022-10-23T12:47:02;100275.31;;;21.50;60.90
62779;BME280;48821;48.796;2.396;2022-10-23T12:48:21;100272.94;;;21.57;60.98
62779;BME280;48821;48.796;2.396;2022-10-23T12:49:31;100267.31;;;21.60;60.83
62779;BME280;48821;48.796;2.396;2022-10-23T12:50:47;100272.38;;;21.63;60.79
62779;BME280;48821;48.796;2.396;2022-10-23T12:52:02;100260.44;;;21.67;61.10
62779;BME280;48821;48.796;2.396;2022-10-23T12:53:16;100250.88;;;21.65;60.24
62779;BME280;48821;48.796;2.396;2022-10-23T12:54:30;100247.19;;;21.66;61.12
62779;BME280;48821;48.796;2.396;2022-10-23T12:55:59;100241.44;;;21.61;60.83
62779;BME280;48821;48.796;2.396;2022-10-23T12:58:32;100241.00;;;21.55;59.52
62779;BME280;48821;48.796;2.396;2022-10-23T12:59:43;100245.59;;;21.53;59.89
62779;BME280;48821;48.796;2.396;2022-10-23T13:00:57;100236.63;;;21.54;60.42
62779;BME280;48821;48.796;2.396;2022-10-23T13:02:23;100221.25;;;21.46;60.93
62779;BME280;48821;48.796;2.396;2022-10-23T13:03:34;100206.03;;;21.37;60.41
62779;BME280;48821;48.796;2.396;2022-10-23T13:04:49;100222.06;;;21.37;60.18
62779;BME280;48821;48.796;2.396;2022-10-23T13:06:00;100222.91;;;21.38;60.37
62779;BME280;48821;48.796;2.396;2022-10-23T13:07:12;100220.25;;;21.38;59.58
62779;BME280;48821;48.796;2.396;2022-10-23T13:08:25;100214.03;;;21.37;59.41
62779;BME280;48821;48.796;2.396;2022-10-23T13:09:40;100211.97;;;21.41;60.41
62779;BME280;48821;48.796;2.396;2022-10-23T13:10:51;100202.09;;;21.41;60.29
62779;BME280;48821;48.796;2.396;2022-10-23T13:12:04;100204.91;;;21.40;59.91
62779;BME280;48821;48.796;2.396;2022-10-23T13:13:20;100204.66;;;21.43;59.59
62779;BME280;48821;48.796;2.396;2022-10-23T13:14:35;100203.66;;;21.44;59.84
62779;BME280;48821;48.796;2.396;2022-10-23T13:15:46;100202.69;;;21.45;60.46
62779;BME280;48821;48.796;2.396;2022-10-23T13:17:05;100194.94;;;21.42;59.66
62779;BME280;48821;48.796;2.396;2022-10-23T13:18:16;100192.25;;;21.42;60.17
62779;BME280;48821;48.796;2.396;2022-10-23T13:19:27;100197.34;;;21.45;59.32
62779;BME280;48821;48.796;2.396;2022-10-23T13:20:41;100199.75;;;21.48;59.60
62779;BME280;48821;48.796;2.396;2022-10-23T13:21:52;100191.72;;;21.48;59.62
62779;BME280;48821;48.796;2.396;2022-10-23T13:23:17;100196.78;;;21.51;59.92
62779;BME280;48821;48.796;2.396;2022-10-23T13:24:29;100190.59;;;21.51;60.27
62779;BME280;48821;48.796;2.396;2022-10-23T13:25:40;100187.19;;;21.48;59.74
62779;BME280;48821;48.796;2.396;2022-10-23T13:26:50;100182.72;;;21.49;59.21
62779;BME280;48821;48.796;2.396;2022-10-23T13:30:38;100168.91;;;21.44;59.57
62779;BME280;48821;48.796;2.396;2022-10-23T13:31:49;100165.53;;;21.42;58.46
62779;BME280;48821;48.796;2.396;2022-10-23T13:33:00;100169.56;;;21.36;59.83
62779;BME280;48821;48.796;2.396;2022-10-23T13:34:21;100168.59;;;21.37;60.15
62779;BME280;48821;48.796;2.396;2022-10-23T13:35:32;100173.09;;;21.36;60.48
62779;BME280;48821;48.796;2.396;2022-10-23T13:38:08;100170.72;;;21.33;60.08
62779;BME280;48821;48.796;2.396;2022-10-23T13:39:24;100163.22;;;21.27;59.83
62779;BME280;48821;48.796;2.396;2022-10-23T13:40:35;100157.03;;;21.27;59.15
62779;BME280;48821;48.796;2.396;2022-10-23T13:41:46;100157.63;;;21.30;59.89
62779;BME280;48821;48.796;2.396;2022-10-23T13:42:56;100157.72;;;21.29;60.35
62779;BME280;48821;48.796;2.396;2022-10-23T13:44:13;100150.56;;;21.29;60.37
62779;BME280;48821;48.796;2.396;2022-10-23T13:45:25;100162.13;;;21.30;59.79
62779;BME280;48821;48.796;2.396;2022-10-23T13:46:35;100142.97;;;21.24;59.64
62779;BME280;48821;48.796;2.396;2022-10-23T13:47:46;100152.09;;;21.22;59.99
62779;BME280;48821;48.796;2.396;2022-10-23T13:48:56;100148.16;;;21.16;59.65
62779;BME280;48821;48.796;2.396;2022-10-23T13:50:07;100153.63;;;21.14;59.88
62779;BME280;48821;48.796;2.396;2022-10-23T13:51:22;100156.44;;;21.13;59.94
62779;BME280;48821;48.796;2.396;2022-10-23T13:52:34;100160.66;;;21.16;60.02
62779;BME280;48821;48.796;2.396;2022-10-23T13:53:44;100166.00;;;21.16;59.99
62779;BME280;48821;48.796;2.396;2022-10-23T13:54:55;100158.97;;;21.14;59.83
62779;BME280;48821;48.796;2.396;2022-10-23T13:56:06;100147.31;;;21.16;60.08
62779;BME280;48821;48.796;2.396;2022-10-23T13:57:18;100142.94;;;21.14;59.90
62779;BME280;48821;48.796;2.396;2022-10-23T13:58:28;100149.13;;;21.15;59.80
62779;BME280;48821;48.796;2.396;2022-10-23T13:59:39;100140.97;;;21.17;60.13
62779;BME280;48821;48.796;2.396;2022-10-23T14:00:49;100147.16;;;21.17;60.22
62779;BME280;48821;48.796;2.396;2022-10-23T14:02:00;100146.31;;;21.17;59.86
62779;BME280;48821;48.796;2.396;2022-10-23T14:03:10;100145.47;;;21.16;59.99
62779;BME280;48821;48.796;2.396;2022-10-23T14:04:20;100134.91;;;21.14;60.44
62779;BME280;48821;48.796;2.396;2022-10-23T14:05:32;100130.41;;;21.15;60.29
62779;BME280;48821;48.796;2.396;2022-10-23T14:06:43;100126.63;;;21.18;60.19
62779;BME280;48821;48.796;2.396;2022-10-23T14:07:53;100138.72;;;21.22;60.85
62779;BME280;48821;48.796;2.396;2022-10-23T14:09:05;100129.75;;;21.23;60.03
62779;BME280;48821;48.796;2.396;2022-10-23T14:10:16;100140.16;;;21.26;60.39
62779;BME280;48821;48.796;2.396;2022-10-23T14:11:27;100121.72;;;21.23;60.19
62779;BME280;48821;48.796;2.396;2022-10-23T14:12:41;100122.69;;;21.22;59.83
62779;BME280;48821;48.796;2.396;2022-10-23T14:13:52;100127.19;;;21.21;60.21
62779;BME280;48821;48.796;2.396;2022-10-23T14:15:02;100125.38;;;21.22;59.76
62779;BME280;48821;48.796;2.396;2022-10-23T14:16:15;100118.34;;;21.21;60.06
62779;BME280;48821;48.796;2.396;2022-10-23T14:17:26;100104.13;;;21.20;60.39
62779;BME280;48821;48.796;2.396;2022-10-23T14:18:37;100107.78;;;21.19;60.48
62779;BME280;48821;48.796;2.396;2022-10-23T14:19:47;100092.16;;;21.14;60.50
62779;BME280;48821;48.796;2.396;2022-10-23T14:21:00;100102.44;;;21.19;60.55
62779;BME280;48821;48.796;2.396;2022-10-23T14:22:10;100102.44;;;21.19;60.28
62779;BME280;48821;48.796;2.396;2022-10-23T14:23:21;100098.22;;;21.17;60.31
62779;BME280;48821;48.796;2.396;2022-10-23T14:24:31;100092.59;;;21.20;60.25
62779;BME280;48821;48.796;2.396;2022-10-23T14:25:41;100092.88;;;21.17;60.06
62779;BME280;48821;48.796;2.396;2022-10-23T14:26:52;100081.75;;;21.11;59.96
62779;BME280;48821;48.796;2.396;2022-10-23T14:28:02;100086.25;;;21.11;60.33
62779;BME280;48821;48.796;2.396;2022-10-23T14:29:13;100082.47;;;21.13;60.40
62779;BME280;48821;48.796;2.396;2022-10-23T14:30:23;100081.47;;;21.14;60.43
62779;BME280;48821;48.796;2.396;2022-10-23T14:31:33;100091.19;;;21.16;60.52
62779;BME280;48821;48.796;2.396;2022-10-23T14:32:44;100089.09;;;21.19;60.54
62779;BME280;48821;48.796;2.396;2022-10-23T14:33:56;100094.31;;;21.21;60.34
62779;BME280;48821;48.796;2.396;2022-10-23T14:35:07;100090.63;;;21.22;60.22
62779;BME280;48821;48.796;2.396;2022-10-23T14:36:18;100088.38;;;21.17;60.38
62779;BME280;48821;48.796;2.396;2022-10-23T14:37:32;100100.44;;;21.11;60.16
62779;BME280;48821;48.796;2.396;2022-10-23T14:38:43;100095.81;;;21.04;60.65
62779;BME280;48821;48.796;2.396;2022-10-23T14:39:53;100113.88;;;21.00;60.48
62779;BME280;48821;48.796;2.396;2022-10-23T14:41:11;100111.34;;;20.98;60.46
62779;BME280;48821;48.796;2.396;2022-10-23T14:42:22;100107.38;;;20.92;60.89
62779;BME280;48821;48.796;2.396;2022-10-23T14:43:32;100107.09;;;20.86;60.19
62779;BME280;48821;48.796;2.396;2022-10-23T14:44:43;100116.78;;;20.87;60.52
62779;BME280;48821;48.796;2.396;2022-10-23T14:45:53;100115.81;;;20.88;60.31
62779;BME280;48821;48.796;2.396;2022-10-23T14:47:04;100111.16;;;20.90;60.47
62779;BME280;48821;48.796;2.396;2022-10-23T14:48:15;100108.50;;;20.90;60.91
62779;BME280;48821;48.796;2.396;2022-10-23T14:49:25;100116.38;;;20.91;60.44
62779;BME280;48821;48.796;2.396;2022-10-23T14:50:41;100112.69;;;20.83;60.99
62779;BME280;48821;48.796;2.396;2022-10-23T14:51:52;100120.13;;;20.79;61.00
62779;BME280;48821;48.796;2.396;2022-10-23T14:53:02;100123.63;;;20.79;60.93
62779;BME280;48821;48.796;2.396;2022-10-23T14:54:13;100130.94;;;20.77;60.98
62779;BME280;48821;48.796;2.396;2022-10-23T14:55:24;100126.59;;;20.76;60.97
62779;BME280;48821;48.796;2.396;2022-10-23T14:56:37;100123.06;;;20.76;61.10
62779;BME280;48821;48.796;2.396;2022-10-23T14:57:53;100113.34;;;20.75;60.88
62779;BME280;48821;48.796;2.396;2022-10-23T14:59:04;100122.59;;;20.71;60.83
62779;BME280;48821;48.796;2.396;2022-10-23T15:00:14;100117.97;;;20.73;61.17
62779;BME280;48821;48.796;2.396;2022-10-23T15:01:25;100121.66;;;20.72;60.80
62779;BME280;48821;48.796;2.396;2022-10-23T15:02:35;100107.28;;;20.73;60.98
62779;BME280;48821;48.796;2.396;2022-10-23T15:03:45;100116.81;;;20.65;61.07
62779;BME280;48821;48.796;2.396;2022-10-23T15:04:57;100108.09;;;20.63;61.75
62779;BME280;48821;48.796;2.396;2022-10-23T15:06:08;100100.53;;;20.68;61.22
62779;BME280;48821;48.796;2.396;2022-10-23T15:07:18;100100.66;;;20.67;61.34
62779;BME280;48821;48.796;2.396;2022-10-23T15:08:28;100103.31;;;20.67;61.77
62779;BME280;48821;48.796;2.396;2022-10-23T15:09:39;100094.19;;;20.69;60.87
62779;BME280;48821;48.796;2.396;2022-10-23T15:10:49;100081.44;;;20.73;61.55
62779;BME280;48821;48.796;2.396;2022-10-23T15:12:00;100088.34;;;20.76;61.28
62779;BME280;48821;48.796;2.396;2022-10-23T15:13:10;100090.75;;;20.79;60.93
62779;BME280;48821;48.796;2.396;2022-10-23T15:14:20;100088.78;;;20.81;61.13
62779;BME280;48821;48.796;2.396;2022-10-23T15:15:31;100097.50;;;20.83;61.34
62779;BME280;48821;48.796;2.396;2022-10-23T15:16:41;100092.44;;;20.80;61.37
62779;BME280;48821;48.796;2.396;2022-10-23T15:17:51;100094.25;;;20.79;61.51
62779;BME280;48821;48.796;2.396;2022-10-23T15:19:01;100099.34;;;20.83;61.59
62779;BME280;48821;48.796;2.396;2022-10-23T15:20:12;100102.59;;;20.86;61.25
62779;BME280;48821;48.796;2.396;2022-10-23T15:21:22;100101.44;;;20.79;61.54
62779;BME280;48821;48.796;2.396;2022-10-23T15:22:33;100099.88;;;20.76;61.30
62779;BME280;48821;48.796;2.396;2022-10-23T15:23:44;100097.47;;;20.73;61.14
62779;BME280;48821;48.796;2.396;2022-10-23T15:24:55;100097.47;;;20.73;61.16
62779;BME280;48821;48.796;2.396;2022-10-23T15:26:13;100099.03;;;20.76;61.41
62779;BME280;48821;48.796;2.396;2022-10-23T15:27:26;100104.22;;;20.77;61.46
62779;BME280;48821;48.796;2.396;2022-10-23T15:28:36;100100.69;;;20.77;61.60
62779;BME280;48821;48.796;2.396;2022-10-23T15:29:47;100106.03;;;20.77;61.43
62779;BME280;48821;48.796;2.396;2022-10-23T15:30:57;100100.59;;;20.78;61.40
62779;BME280;48821;48.796;2.396;2022-10-23T15:32:08;100099.34;;;20.83;61.32
62779;BME280;48821;48.796;2.396;2022-10-23T15:33:19;100098.06;;;20.87;60.96
62779;BME280;48821;48.796;2.396;2022-10-23T15:34:30;100101.34;;;20.90;61.28
62779;BME280;48821;48.796;2.396;2022-10-23T15:35:41;100099.78;;;20.88;61.00
62779;BME280;48821;48.796;2.396;2022-10-23T15:36:53;100109.50;;;20.89;61.06
62779;BME280;48821;48.796;2.396;2022-10-23T15:38:03;100099.34;;;20.83;61.25
62779;BME280;48821;48.796;2.396;2022-10-23T15:39:17;100103.00;;;20.82;60.92
62779;BME280;48821;48.796;2.396;2022-10-23T15:40:28;100106.22;;;20.85;61.32
62779;BME280;48821;48.796;2.396;2022-10-23T15:41:40;100109.59;;;20.87;61.44
62779;BME280;48821;48.796;2.396;2022-10-23T15:42:50;100110.31;;;20.89;61.34
62779;BME280;48821;48.796;2.396;2022-10-23T15:44:03;100111.31;;;20.88;61.09
62779;BME280;48821;48.796;2.396;2022-10-23T15:45:14;100119.31;;;20.88;61.61
62779;BME280;48821;48.796;2.396;2022-10-23T15:46:25;100121.00;;;20.89;60.93
62779;BME280;48821;48.796;2.396;2022-10-23T15:47:36;100117.38;;;20.90;61.36
62779;BME280;48821;48.796;2.396;2022-10-23T15:48:46;100112.72;;;20.92;61.33
62779;BME280;48821;48.796;2.396;2022-10-23T15:49:56;100110.91;;;20.93;61.37
62779;BME280;48821;48.796;2.396;2022-10-23T15:51:07;100126.69;;;20.96;61.23
62779;BME280;48821;48.796;2.396;2022-10-23T15:52:17;100116.09;;;20.95;60.92
62779;BME280;48821;48.796;2.396;2022-10-23T15:53:27;100126.78;;;20.95;60.95
62779;BME280;48821;48.796;2.396;2022-10-23T15:54:38;100127.50;;;20.97;61.13
62779;BME280;48821;48.796;2.396;2022-10-23T15:55:48;100131.88;;;20.98;60.93
62779;BME280;48821;48.796;2.396;2022-10-23T15:56:59;100130.91;;;20.99;61.05
62779;BME280;48821;48.796;2.396;2022-10-23T15:58:09;100123.41;;;20.92;61.50
62779;BME280;48821;48.796;2.396;2022-10-23T15:59:22;100128.75;;;20.92;61.02
62779;BME280;48821;48.796;2.396;2022-10-23T16:00:33;100133.56;;;20.99;61.20
62779;BME280;48821;48.796;2.396;2022-10-23T16:01:45;100134.31;;;21.01;61.15
62779;BME280;48821;48.796;2.396;2022-10-23T16:02:56;100136.00;;;21.02;61.53
62779;BME280;48821;48.796;2.396;2022-10-23T16:04:07;100138.41;;;21.05;61.01
62779;BME280;48821;48.796;2.396;2022-10-23T16:05:17;100147.03;;;20.97;60.64
62779;BME280;48821;48.796;2.396;2022-10-23T16:06:28;100147.91;;;20.98;61.06
62779;BME280;48821;48.796;2.396;2022-10-23T16:07:38;100160.53;;;20.96;60.98
62779;BME280;48821;48.796;2.396;2022-10-23T16:08:48;100166.44;;;20.99;60.84
62779;BME280;48821;48.796;2.396;2022-10-23T16:09:59;100161.97;;;21.00;61.16
62779;BME280;48821;48.796;2.396;2022-10-23T16:11:31;100175.31;;;21.00;61.04
62779;BME280;48821;48.796;2.396;2022-10-23T16:12:42;100163.06;;;20.97;61.62
62779;BME280;48821;48.796;2.396;2022-10-23T16:13:53;100171.94;;;20.98;61.23
62779;BME280;48821;48.796;2.396;2022-10-23T16:15:04;100173.91;;;20.96;61.26
62779;BME280;48821;48.796;2.396;2022-10-23T16:16:17;100166.59;;;20.98;61.50
62779;BME280;48821;48.796;2.396;2022-10-23T16:17:27;100164.63;;;21.00;61.70
62779;BME280;48821;48.796;2.396;2022-10-23T16:18:39;100169.03;;;21.01;61.34
62779;BME280;48821;48.796;2.396;2022-10-23T16:19:49;100167.31;;;21.00;61.05
62779;BME280;48821;48.796;2.396;2022-10-23T16:20:59;100168.56;;;20.96;61.33
62779;BME280;48821;48.796;2.396;2022-10-23T16:22:10;100173.03;;;20.95;61.59
62779;BME280;48821;48.796;2.396;2022-10-23T16:23:21;100179.34;;;20.94;61.20
62779;BME280;48821;48.796;2.396;2022-10-23T16:24:32;100177.78;;;20.91;61.22
62779;BME280;48821;48.796;2.396;2022-10-23T16:25:43;100182.16;;;20.92;61.50
62779;BME280;48821;48.796;2.396;2022-10-23T16:26:54;100186.34;;;20.85;59.41
62779;BME280;48821;48.796;2.396;2022-10-23T16:28:06;100170.59;;;20.82;60.53
62779;BME280;48821;48.796;2.396;2022-10-23T16:29:17;100159.59;;;20.75;59.10
62779;BME280;48821;48.796;2.396;2022-10-23T16:30:27;100168.31;;;20.77;59.60
62779;BME280;48821;48.796;2.396;2022-10-23T16:31:37;100173.66;;;20.77;59.32
62779;BME280;48821;48.796;2.396;2022-10-23T16:32:48;100171.22;;;20.74;60.12
62779;BME280;48821;48.796;2.396;2022-10-23T16:34:00;100169.41;;;20.75;60.16
62779;BME280;48821;48.796;2.396;2022-10-23T16:35:11;100173.91;;;20.74;60.24
62779;BME280;48821;48.796;2.396;2022-10-23T16:36:21;100173.78;;;20.76;60.15
62779;BME280;48821;48.796;2.396;2022-10-23T16:37:31;100177.56;;;20.73;60.28
62779;BME280;48821;48.796;2.396;2022-10-23T16:38:42;100182.31;;;20.69;60.28
62779;BME280;48821;48.796;2.396;2022-10-23T16:39:52;100186.47;;;20.62;59.70
62779;BME280;48821;48.796;2.396;2022-10-23T16:41:03;100183.09;;;20.60;60.40
62779;BME280;48821;48.796;2.396;2022-10-23T16:42:13;100186.75;;;20.59;59.70
62779;BME280;48821;48.796;2.396;2022-10-23T16:43:24;100184.81;;;20.61;60.25
62779;BME280;48821;48.796;2.396;2022-10-23T16:44:35;100190.41;;;20.58;59.52
62779;BME280;48821;48.796;2.396;2022-10-23T16:45:45;100193.31;;;20.55;58.54
62779;BME280;48821;48.796;2.396;2022-10-23T16:46:55;100202.19;;;20.55;59.90
62779;BME280;48821;48.796;2.396;2022-10-23T16:48:06;100198.66;;;20.55;59.67
62779;BME280;48821;48.796;2.396;2022-10-23T16:49:16;100203.53;;;20.50;59.71
62779;BME280;48821;48.796;2.396;2022-10-23T16:50:26;100204.53;;;20.49;59.04
62779;BME280;48821;48.796;2.396;2022-10-23T16:51:37;100213.50;;;20.48;59.07
62779;BME280;48821;48.796;2.396;2022-10-23T16:52:47;100215.59;;;20.44;59.60
62779;BME280;48821;48.796;2.396;2022-10-23T16:53:58;100217.56;;;20.42;59.04
62779;BME280;48821;48.796;2.396;2022-10-23T16:55:08;100214.03;;;20.41;59.06
62779;BME280;48821;48.796;2.396;2022-10-23T16:56:21;100216.44;;;20.44;58.90
62779;BME280;48821;48.796;2.396;2022-10-23T16:57:34;100210.97;;;20.46;58.89
62779;BME280;48821;48.796;2.396;2022-10-23T16:58:45;100213.03;;;20.42;59.71
62779;BME280;48821;48.796;2.396;2022-10-23T16:59:55;100220.31;;;20.40;59.23
62779;BME280;48821;48.796;2.396;2022-10-23T17:01:12;100213.31;;;20.39;58.79
62779;BME280;48821;48.796;2.396;2022-10-23T17:02:22;100222.13;;;20.40;59.23
62779;BME280;48821;48.796;2.396;2022-10-23T17:03:35;100231.00;;;20.40;59.04
62779;BME280;48821;48.796;2.396;2022-10-23T17:04:45;100232.81;;;20.40;59.47
62779;BME280;48821;48.796;2.396;2022-10-23T17:06:00;100236.47;;;20.39;59.28
62779;BME280;48821;48.796;2.396;2022-10-23T17:07:11;100236.63;;;20.37;59.16
62779;BME280;48821;48.796;2.396;2022-10-23T17:08:22;100236.84;;;20.34;59.15
62779;BME280;48821;48.796;2.396;2022-10-23T17:09:32;100241.34;;;20.33;58.85
62779;BME280;48821;48.796;2.396;2022-10-23T17:10:42;100252.88;;;20.34;59.18
62779;BME280;48821;48.796;2.396;2022-10-23T17:11:53;100244.25;;;20.30;59.36
62779;BME280;48821;48.796;2.396;2022-10-23T17:13:03;100246.06;;;20.30;58.56
62779;BME280;48821;48.796;2.396;2022-10-23T17:14:16;100248.63;;;20.31;59.07
62779;BME280;48821;48.796;2.396;2022-10-23T17:15:27;100260.16;;;20.32;58.68
62779;BME280;48821;48.796;2.396;2022-10-23T17:16:41;100254.81;;;20.32;59.02
62779;BME280;48821;48.796;2.396;2022-10-23T17:17:52;100258.22;;;20.34;57.96
62779;BME280;48821;48.796;2.396;2022-10-23T17:19:04;100252.16;;;20.32;58.11
62779;BME280;48821;48.796;2.396;2022-10-23T17:20:15;100266.59;;;20.29;58.64
62779;BME280;48821;48.796;2.396;2022-10-23T17:21:25;100261.50;;;20.26;59.12
62779;BME280;48821;48.796;2.396;2022-10-23T17:22:35;100261.50;;;20.26;58.47
62779;BME280;48821;48.796;2.396;2022-10-23T17:23:49;100266.59;;;20.29;58.80
62779;BME280;48821;48.796;2.396;2022-10-23T17:24:59;100258.69;;;20.28;58.89
62779;BME280;48821;48.796;2.396;2022-10-23T17:26:13;100273.63;;;20.30;57.62
62779;BME280;48821;48.796;2.396;2022-10-23T17:27:24;100266.59;;;20.29;58.56
62779;BME280;48821;48.796;2.396;2022-10-23T17:28:34;100275.31;;;20.31;58.69
62779;BME280;48821;48.796;2.396;2022-10-23T17:29:48;100281.75;;;20.29;58.69
62779;BME280;48821;48.796;2.396;2022-10-23T17:30:59;100280.03;;;20.28;58.74
62779;BME280;48821;48.796;2.396;2022-10-23T17:32:09;100278.09;;;20.30;58.99
62779;BME280;48821;48.796;2.396;2022-10-23T17:33:20;100285.66;;;20.24;59.01
62779;BME280;48821;48.796;2.396;2022-10-23T17:34:30;100285.75;;;20.23;58.76